KIS weather

Kisumu Airport
Kisumu, Nyanza Province, Kenya

Public forecast

Using degrees Celsius for public forecast. Weather courtesy of forecast.io.

METAR (pilot weather report)

Retrieved 2019/05/20 07:00 UTC (1 hour ago):

HKKI 200700Z 14003KT 9999 FEW021 BKN270 24/17 Q1020

TAF (pilot weather forecast)

Retrieved 2019/05/20 06:59 UTC (1 hour ago):

TAF HKKI 200500Z 2006/2106 04005KT 9999 FEW018CB SCT019 BKN080 BECMG 2006/2009 08005KT BECMG 2012/2015 33010KT 9999 -TSRA FEW020CB SCT022 BKN080 BECMG 2103/2106 NSW FEW020CB SCT022